Time;durP1;ratioP1;P1;durP2;ratioP2;P2;SDS_P1;SDS_P2;PMS_P1;PMS_P2;Temp;Humidity;BMP_temperature;BMP_pressure;BME280_temperature;BME280_humidity;BME280_pressure;Samples;Min_cycle;Max_cycle;Signal;HPM_P1;HPM_P2
2023/10/27 00:02:39;;;;;;;44.85;30.02;;;;;;;10.99;100.00;99178.00;10584754;28;20391;-72
2023/10/27 00:07:39;;;;;;;44.00;29.73;;;;;;;11.00;100.00;99176.91;10584157;28;20039;-73
2023/10/27 00:12:40;;;;;;;44.70;28.38;;;;;;;10.96;100.00;99176.59;10584802;28;20028;-72
2023/10/27 00:17:40;;;;;;;42.08;25.55;;;;;;;10.93;100.00;99167.06;10583686;28;20132;-72
2023/10/27 00:22:40;;;;;;;40.35;27.55;;;;;;;10.99;100.00;99169.88;10583649;28;20031;-70
2023/10/27 00:27:41;;;;;;;39.83;27.73;;;;;;;11.03;100.00;99166.41;10582704;28;20043;-72
2023/10/27 00:32:41;;;;;;;43.65;28.08;;;;;;;10.99;100.00;99159.84;10582766;28;20384;-72
2023/10/27 00:37:42;;;;;;;41.03;26.95;;;;;;;10.99;100.00;99145.50;10584389;28;20055;-71
2023/10/27 00:42:42;;;;;;;39.22;26.70;;;;;;;11.01;100.00;99146.06;10584825;28;20431;-71
2023/10/27 00:47:42;;;;;;;39.88;27.45;;;;;;;10.99;100.00;99148.19;10581821;28;20048;-68
2023/10/27 00:52:43;;;;;;;40.25;26.58;;;;;;;11.00;100.00;99137.09;10582169;28;20066;-69
2023/10/27 00:57:44;;;;;;;42.53;27.58;;;;;;;10.97;100.00;99140.31;10581404;27;20054;-68
2023/10/27 01:02:44;;;;;;;35.03;26.95;;;;;;;10.99;100.00;99137.38;10580437;28;20092;-68
2023/10/27 01:07:44;;;;;;;36.75;26.70;;;;;;;10.99;100.00;99132.75;10579677;28;20039;-66
2023/10/27 01:12:46;;;;;;;37.17;24.30;;;;;;;11.00;100.00;99122.75;10580517;28;20062;-68
2023/10/27 01:17:47;;;;;;;38.65;25.80;;;;;;;11.00;100.00;99125.47;10579223;28;20049;-68
2023/10/27 01:22:47;;;;;;;35.85;25.52;;;;;;;10.98;100.00;99122.19;10581334;28;20092;-69
2023/10/27 01:27:48;;;;;;;37.28;24.98;;;;;;;10.96;100.00;99121.59;10578961;28;20063;-73
2023/10/27 01:32:48;;;;;;;35.85;25.50;;;;;;;10.94;100.00;99119.97;10578740;28;20043;-69
2023/10/27 01:37:49;;;;;;;34.97;22.75;;;;;;;10.90;100.00;99113.38;10579873;28;20041;-69
2023/10/27 01:42:50;;;;;;;36.92;23.83;;;;;;;10.88;100.00;99112.81;10579661;28;20088;-66
2023/10/27 01:47:50;;;;;;;36.90;23.40;;;;;;;10.88;100.00;99112.81;10581318;28;20195;-68
2023/10/27 01:52:50;;;;;;;34.22;23.63;;;;;;;10.96;100.00;99110.75;10582620;28;20036;-67
2023/10/27 01:57:51;;;;;;;31.02;21.35;;;;;;;10.93;100.00;99109.38;10583153;28;20066;-68
2023/10/27 02:02:51;;;;;;;31.58;19.58;;;;;;;10.97;100.00;99106.97;10579498;28;20058;-69
2023/10/27 02:07:52;;;;;;;30.10;20.60;;;;;;;10.97;100.00;99101.56;10579926;28;20184;-69
2023/10/27 02:12:52;;;;;;;25.10;15.13;;;;;;;10.92;100.00;99097.72;10576771;28;20590;-68
2023/10/27 02:17:52;;;;;;;3.50;3.28;;;;;;;10.96;100.00;99095.34;10579563;28;20050;-68
2023/10/27 02:22:53;;;;;;;3.10;2.90;;;;;;;10.98;100.00;99092.41;10586667;28;20077;-68
2023/10/27 02:27:53;;;;;;;7.68;2.55;;;;;;;10.96;100.00;99094.50;10586075;28;20050;-68
2023/10/27 02:32:53;;;;;;;2.67;2.58;;;;;;;11.01;100.00;99089.16;10587272;28;20043;-70
2023/10/27 02:37:54;;;;;;;1.40;1.40;;;;;;;11.05;100.00;99091.16;10587148;28;20400;-71
2023/10/27 02:42:54;;;;;;;2.55;2.40;;;;;;;11.04;100.00;99094.94;10586793;28;20074;-69
2023/10/27 02:47:55;;;;;;;1.48;1.48;;;;;;;11.04;100.00;99091.38;10568251;28;20082;-71
2023/10/27 02:52:56;;;;;;;2.75;2.65;;;;;;;11.06;100.00;99097.41;10586052;28;20031;-72
2023/10/27 02:57:56;;;;;;;1.27;1.27;;;;;;;11.11;100.00;99097.50;10587077;28;20464;-72
2023/10/27 03:02:57;;;;;;;0.82;0.82;;;;;;;11.08;100.00;99090.66;10586017;28;20115;-71
2023/10/27 03:07:57;;;;;;;4.32;2.47;;;;;;;11.09;100.00;99091.50;10588521;28;20073;-70
2023/10/27 03:12:57;;;;;;;1.30;1.30;;;;;;;11.05;100.00;99082.22;10587563;28;20132;-70
2023/10/27 03:17:58;;;;;;;0.50;0.50;;;;;;;11.02;100.00;99077.28;10585049;28;20130;-69
2023/10/27 03:22:58;;;;;;;3.17;2.97;;;;;;;11.02;100.00;99082.72;10584163;28;20061;-68
2023/10/27 03:27:59;;;;;;;0.40;0.40;;;;;;;11.04;100.00;99081.41;10583474;28;20423;-69
2023/10/27 03:32:59;;;;;;;2.40;2.20;;;;;;;11.04;100.00;99075.97;10584586;28;20119;-68
2023/10/27 03:38:00;;;;;;;3.90;2.38;;;;;;;11.06;100.00;99076.53;10584482;28;20546;-68
2023/10/27 03:43:00;;;;;;;1.73;1.73;;;;;;;11.04;100.00;99069.72;10583168;28;20027;-70
2023/10/27 03:48:02;;;;;;;1.30;1.30;;;;;;;11.08;100.00;99070.91;10583441;28;20418;-70
2023/10/27 03:53:02;;;;;;;19.45;2.88;;;;;;;11.09;100.00;99078.75;10566317;28;20108;-69
2023/10/27 03:58:15;;;;;;;2.30;1.95;;;;;;;11.07;100.00;99069.22;10582834;28;20084;-70
2023/10/27 04:03:16;;;;;;;1.83;1.83;;;;;;;11.04;100.00;99070.56;10581624;28;20034;-71
2023/10/27 04:08:16;;;;;;;2.63;2.40;;;;;;;11.07;100.00;99075.50;10584026;28;20042;-69
2023/10/27 04:13:17;;;;;;;0.50;0.50;;;;;;;11.10;100.00;99068.75;10582713;28;20055;-70
2023/10/27 04:18:17;;;;;;;1.23;1.23;;;;;;;11.08;100.00;99070.91;10582704;28;20032;-70
2023/10/27 04:23:17;;;;;;;0.50;0.50;;;;;;;11.02;100.00;99067.28;10583142;28;20103;-70
2023/10/27 04:28:18;;;;;;;1.50;1.50;;;;;;;10.96;100.00;99060.13;10580738;28;20528;-69
2023/10/27 04:33:20;;;;;;;0.63;0.63;;;;;;;11.04;100.00;99072.44;10536436;27;20105;-71
2023/10/27 04:38:21;;;;;;;1.10;1.10;;;;;;;11.05;100.00;99074.09;10598056;27;20035;-72
2023/10/27 04:43:21;;;;;;;1.75;1.65;;;;;;;11.03;100.00;99079.75;10583232;28;20031;-72
2023/10/27 04:48:22;;;;;;;1.52;1.48;;;;;;;11.06;100.00;99079.25;10595767;28;20063;-70
2023/10/27 04:53:22;;;;;;;0.50;0.50;;;;;;;11.11;100.00;99086.66;10585890;28;20116;-70
2023/10/27 04:58:23;;;;;;;0.52;0.52;;;;;;;11.11;100.00;99079.34;10582337;28;20074;-71
2023/10/27 05:03:23;;;;;;;0.75;0.75;;;;;;;11.10;100.00;99079.56;10581345;28;20092;-70
2023/10/27 05:08:24;;;;;;;1.05;1.05;;;;;;;11.10;100.00;99079.56;10581494;28;20466;-70
2023/10/27 05:13:24;;;;;;;1.50;1.40;;;;;;;11.09;100.00;99072.53;10580370;28;20080;-71
2023/10/27 05:18:25;;;;;;;1.00;0.95;;;;;;;11.10;100.00;99077.72;10580373;28;20032;-71
2023/10/27 05:23:25;;;;;;;0.47;0.47;;;;;;;11.09;100.00;99072.53;10580118;28;20058;-70
2023/10/27 05:28:25;;;;;;;0.73;0.73;;;;;;;11.07;100.00;99080.06;10579984;28;20152;-71
2023/10/27 05:33:26;;;;;;;0.75;0.75;;;;;;;11.07;100.00;99080.06;10579784;28;20031;-69
2023/10/27 05:38:26;;;;;;;0.60;0.60;;;;;;;11.06;100.00;99076.53;10579729;28;20035;-71
2023/10/27 05:43:27;;;;;;;0.90;0.90;;;;;;;11.02;100.00;99072.69;10580503;28;20036;-71
2023/10/27 05:48:27;;;;;;;0.50;0.50;;;;;;;11.05;100.00;99071.38;10560979;28;20095;-71
2023/10/27 05:53:27;;;;;;;0.73;0.73;;;;;;;11.06;100.00;99075.72;10579321;28;20031;-72
2023/10/27 05:58:32;;;;;;;1.15;1.15;;;;;;;11.01;100.00;99072.91;10578825;28;20043;-71
2023/10/27 06:03:33;;;;;;;2.25;2.15;;;;;;;11.01;100.00;99073.75;10578206;28;20055;-70
2023/10/27 06:08:33;;;;;;;1.27;1.27;;;;;;;11.05;100.00;99077.63;10594665;28;20063;-71
2023/10/27 06:13:34;;;;;;;0.55;0.55;;;;;;;11.03;100.00;99079.75;10580264;28;20414;-70
2023/10/27 06:18:34;;;;;;;2.70;2.60;;;;;;;11.03;100.00;99079.75;10577923;28;20063;-71
2023/10/27 06:23:35;;;;;;;0.98;0.98;;;;;;;11.03;100.00;99068.91;10581151;28;20051;-71
2023/10/27 06:28:35;;;;;;;3.70;2.60;;;;;;;11.01;100.00;99072.91;10580995;28;20090;-70
2023/10/27 06:33:36;;;;;;;1.13;1.13;;;;;;;10.95;100.00;99069.31;10578755;28;20032;-71
2023/10/27 06:38:37;;;;;;;1.60;1.60;;;;;;;10.96;100.00;99079.09;10577872;28;20031;-71
2023/10/27 06:43:37;;;;;;;1.98;1.95;;;;;;;10.94;100.00;99092.88;10576516;28;20027;-70
2023/10/27 06:48:37;;;;;;;0.50;0.50;;;;;;;10.96;100.00;99095.34;10577661;28;20447;-72
2023/10/27 06:53:38;;;;;;;3.95;1.77;;;;;;;10.97;100.00;99096.16;10578101;28;20051;-72
2023/10/27 06:58:38;;;;;;;0.47;0.47;;;;;;;10.94;100.00;99094.75;10577994;28;20060;-71
2023/10/27 07:03:39;;;;;;;0.70;0.70;;;;;;;10.92;100.00;99099.59;10577487;28;20032;-72
2023/10/27 07:08:39;;;;;;;1.48;1.48;;;;;;;10.95;100.00;99107.25;10581655;28;20031;-70
2023/10/27 07:13:40;;;;;;;1.00;1.00;;;;;;;10.96;100.00;99108.06;10585811;28;20386;-72
2023/10/27 07:18:40;;;;;;;1.27;1.27;;;;;;;10.95;100.00;99107.25;10585440;28;20040;-71
2023/10/27 07:23:40;;;;;;;1.40;1.35;;;;;;;11.00;100.00;99109.19;10584405;28;20048;-72
2023/10/27 07:28:41;;;;;;;1.00;1.00;;;;;;;11.04;100.00;99108.50;10585785;28;20092;-71
2023/10/27 07:33:43;;;;;;;0.50;0.50;;;;;;;11.06;100.00;99110.94;10583408;28;20446;-70
2023/10/27 07:38:43;;;;;;;11.30;3.13;;;;;;;11.11;100.00;99108.31;10584731;28;20066;-73
2023/10/27 07:43:44;;;;;;;1.48;1.48;;;;;;;11.11;100.00;99116.47;10583215;28;20063;-71
2023/10/27 07:48:44;;;;;;;5.45;4.97;;;;;;;11.16;100.00;99119.22;10583306;28;20051;-71
2023/10/27 07:53:45;;;;;;;0.63;0.63;;;;;;;11.18;100.00;99126.06;10583116;28;20422;-70
2023/10/27 07:58:46;;;;;;;0.60;0.60;;;;;;;11.22;100.00;99125.56;10584663;28;20067;-72
2023/10/27 08:03:46;;;;;;;4.72;1.95;;;;;;;11.24;100.00;99126.16;10585359;28;20152;-71
2023/10/27 08:08:46;;;;;;;0.65;0.65;;;;;;;11.27;100.00;99140.03;10588006;28;20036;-72
2023/10/27 08:13:47;;;;;;;1.40;1.40;;;;;;;11.30;100.00;99134.13;10584495;28;20090;-71
2023/10/27 08:18:47;;;;;;;1.02;1.02;;;;;;;11.27;100.00;99137.31;10581953;28;20035;-72
2023/10/27 08:23:48;;;;;;;56.38;7.30;;;;;;;11.29;100.00;99146.00;10581522;28;20072;-70
2023/10/27 08:28:48;;;;;;;0.50;0.50;;;;;;;11.27;100.00;99140.03;10582494;28;20043;-71
2023/10/27 08:33:48;;;;;;;0.90;0.90;;;;;;;11.29;100.00;99148.72;10583016;28;20436;-71
2023/10/27 08:38:49;;;;;;;0.60;0.60;;;;;;;11.32;100.00;99150.94;10582729;28;20066;-71
2023/10/27 08:43:49;;;;;;;0.47;0.47;;;;;;;11.35;100.00;99147.75;10581770;28;20036;-71
2023/10/27 08:48:50;;;;;;;0.60;0.60;;;;;;;11.33;100.00;99138.22;10579779;28;20155;-71
2023/10/27 08:53:51;;;;;;;1.42;1.42;;;;;;;11.34;100.00;99129.84;10581700;28;20027;-71
2023/10/27 08:58:54;;;;;;;2.20;2.10;;;;;;;11.47;100.00;99134.13;10581112;28;20039;-71
2023/10/27 09:04:14;;;;;;;1.75;1.75;;;;;;;11.49;100.00;99142.03;10597111;27;20501;-72
2023/10/27 09:09:14;;;;;;;0.77;0.77;;;;;;;11.46;100.00;99135.19;10579346;28;20043;-71
2023/10/27 09:14:17;;;;;;;2.03;1.92;;;;;;;11.56;100.00;99142.66;10579579;28;20035;-72
2023/10/27 09:19:25;;;;;;;1.02;1.02;;;;;;;11.65;100.00;99143.91;10580795;28;20044;-71
2023/10/27 09:24:29;;;;;;;1.00;1.00;;;;;;;11.62;100.00;99152.53;10581314;28;20027;-72
2023/10/27 09:29:41;;;;;;;0.90;0.90;;;;;;;11.51;100.00;99153.41;10579639;28;20027;-71
2023/10/27 09:34:41;;;;;;;1.48;1.48;;;;;;;11.45;100.00;99147.09;10566053;28;20035;-70
2023/10/27 09:39:42;;;;;;;8.48;4.10;;;;;;;11.52;100.00;99146.91;10580828;28;20576;-71
2023/10/27 09:44:49;;;;;;;0.47;0.47;;;;;;;11.47;100.00;99146.84;10578875;28;20443;-72
2023/10/27 09:49:54;;;;;;;0.80;0.80;;;;;;;11.55;100.00;99146.44;10580514;28;20066;-72
2023/10/27 09:54:57;;;;;;;1.73;1.63;;;;;;;11.50;100.00;99152.59;10561650;28;20048;-69
2023/10/27 10:00:01;;;;;;;0.70;0.70;;;;;;;11.57;100.00;99155.16;10578435;28;20084;-71
2023/10/27 10:05:02;;;;;;;0.43;0.43;;;;;;;11.54;100.00;99150.22;10577013;28;20035;-71
2023/10/27 10:10:32;;;;;;;0.40;0.40;;;;;;;11.55;100.00;99159.97;10580382;28;20085;-71
2023/10/27 10:15:42;;;;;;;0.80;0.80;;;;;;;11.54;100.00;99159.16;10579989;28;20043;-69
2023/10/27 10:20:57;;;;;;;0.43;0.43;;;;;;;11.66;100.00;99160.97;10578465;28;20356;-71
2023/10/27 10:25:59;;;;;;;1.63;1.52;;;;;;;11.79;100.00;99164.16;10580094;28;20073;-71
2023/10/27 10:31:16;;;;;;;0.95;0.95;;;;;;;11.89;100.00;99158.09;10582248;28;20039;-71
2023/10/27 10:36:24;;;;;;;1.88;1.75;;;;;;;12.03;100.00;99153.16;10581848;28;20059;-72
2023/10/27 10:41:53;;;;;;;0.50;0.50;;;;;;;12.21;100.00;99152.03;10598256;28;20076;-73
2023/10/27 10:46:53;;;;;;;0.60;0.60;;;;;;;12.32;100.00;99148.41;10587885;28;20114;-73
2023/10/27 10:51:55;;;;;;;0.88;0.88;;;;;;;12.32;100.00;99149.22;10586711;28;20481;-73
2023/10/27 10:57:07;;;;;;;1.35;1.27;;;;;;;12.41;100.00;99149.59;10585416;28;20032;-74
2023/10/27 11:02:08;;;;;;;0.57;0.57;;;;;;;12.41;100.00;99144.19;10552574;28;20027;-73
2023/10/27 11:07:09;;;;;;;0.60;0.60;;;;;;;12.32;100.00;99149.22;10587603;28;20118;-73
2023/10/27 11:12:23;;;;;;;1.50;1.50;;;;;;;12.08;100.00;99143.19;10585805;28;20076;-73
2023/10/27 11:17:23;;;;;;;0.80;0.80;;;;;;;11.81;100.00;99140.34;10584824;27;20124;-74
2023/10/27 11:22:25;;;;;;;0.63;0.63;;;;;;;11.65;100.00;99141.19;10585107;28;20031;-71
2023/10/27 11:27:26;;;;;;;0.60;0.60;;;;;;;11.56;100.00;99148.09;10586251;28;20031;-70
2023/10/27 11:32:26;;;;;;;0.50;0.50;;;;;;;11.61;100.00;99142.72;10583505;28;20024;-72
2023/10/27 11:37:26;;;;;;;0.68;0.68;;;;;;;11.79;100.00;99138.94;10585218;28;20047;-71
2023/10/27 11:42:27;;;;;;;0.70;0.70;;;;;;;12.20;100.00;99134.13;10590721;28;20031;-71
2023/10/27 11:47:27;;;;;;;1.60;1.60;;;;;;;12.29;100.00;99135.34;10586209;28;20054;-70
2023/10/27 11:52:28;;;;;;;0.52;0.52;;;;;;;12.25;100.00;99132.31;10584560;28;20036;-72
2023/10/27 11:57:28;;;;;;;3.05;2.88;;;;;;;12.37;100.00;99126.72;10584551;28;20088;-71
2023/10/27 12:02:28;;;;;;;1.15;1.15;;;;;;;12.49;100.00;99132.03;10583923;28;20126;-72
2023/10/27 12:07:29;;;;;;;0.45;0.45;;;;;;;12.72;100.00;99139.91;10583730;28;20044;-71
2023/10/27 12:12:29;;;;;;;1.25;1.25;;;;;;;12.77;100.00;99142.69;10583675;28;20085;-72
2023/10/27 12:17:30;;;;;;;1.80;1.80;;;;;;;13.00;100.00;99138.03;10563951;28;20038;-74
2023/10/27 12:22:31;;;;;;;2.00;1.90;;;;;;;12.86;100.00;99128.63;10582507;28;20023;-72
2023/10/27 12:27:31;;;;;;;2.28;2.05;;;;;;;12.75;100.00;99133.16;10582875;28;20028;-72
2023/10/27 12:32:35;;;;;;;1.35;1.35;;;;;;;12.63;100.00;99137.91;10584141;28;20035;-70
2023/10/27 12:37:35;;;;;;;0.60;0.60;;;;;;;12.61;100.00;99130.03;10564226;28;20071;-69
2023/10/27 12:42:35;;;;;;;0.60;0.60;;;;;;;12.66;100.00;99130.06;10582186;28;20056;-70
2023/10/27 12:47:36;;;;;;;9.73;2.03;;;;;;;12.62;100.00;99130.84;10581776;28;20351;-70
2023/10/27 12:52:37;;;;;;;0.60;0.60;;;;;;;12.50;100.00;99126.34;10582649;28;20032;-71
2023/10/27 12:57:38;;;;;;;0.98;0.98;;;;;;;12.43;100.00;99142.00;10585774;28;20108;-71
2023/10/27 13:02:38;;;;;;;0.70;0.70;;;;;;;12.40;100.00;99152.56;10585794;28;20080;-71
2023/10/27 13:07:42;;;;;;;0.60;0.60;;;;;;;12.30;100.00;99153.25;10582388;28;20031;-71
2023/10/27 13:12:43;;;;;;;1.30;1.30;;;;;;;12.29;100.00;99143.47;10581727;28;20089;-73
2023/10/27 13:17:44;;;;;;;0.70;0.70;;;;;;;12.41;100.00;99151.47;10581470;28;20073;-71
2023/10/27 13:22:48;;;;;;;0.50;0.50;;;;;;;12.38;100.00;99147.41;10581260;28;20418;-71
2023/10/27 13:27:48;;;;;;;0.60;0.60;;;;;;;12.33;100.00;99140.00;10579162;28;20170;-71
2023/10/27 13:32:52;;;;;;;0.40;0.40;;;;;;;12.29;100.00;99135.34;10580277;28;20474;-69
2023/10/27 13:38:06;;;;;;;6.40;3.17;;;;;;;12.21;100.00;99139.28;10579102;28;20103;-71
2023/10/27 13:43:06;;;;;;;0.40;0.40;;;;;;;12.08;100.00;99153.22;10579527;28;20494;-72
2023/10/27 13:48:08;;;;;;;2.17;2.08;;;;;;;12.01;100.00;99158.84;10578928;28;20044;-70
2023/10/27 13:53:09;;;;;;;0.52;0.52;;;;;;;12.03;100.00;99156.69;10580691;28;20031;-70
2023/10/27 13:58:09;;;;;;;0.40;0.40;;;;;;;12.22;100.00;99159.09;10578761;28;20087;-68
2023/10/27 14:03:10;;;;;;;0.60;0.60;;;;;;;12.50;100.00;99163.53;10578778;28;20035;-70
2023/10/27 14:08:10;;;;;;;0.65;0.65;;;;;;;12.74;100.00;99177.69;10578275;28;20047;-71
2023/10/27 14:13:10;;;;;;;0.80;0.80;;;;;;;12.71;100.00;99180.91;10579331;28;20085;-69
2023/10/27 14:18:11;;;;;;;4.63;1.33;;;;;;;12.67;100.00;99190.66;10584778;28;20036;-71
2023/10/27 14:23:11;;;;;;;2.78;2.58;;;;;;;12.65;100.00;99190.88;10588855;28;20024;-72
2023/10/27 14:28:12;;;;;;;0.50;0.50;;;;;;;12.53;100.00;99190.19;10586523;28;20040;-71
2023/10/27 14:33:13;;;;;;;0.43;0.43;;;;;;;12.48;100.00;99179.28;10586509;28;20072;-71
2023/10/27 14:38:14;;;;;;;0.50;0.50;;;;;;;12.49;100.00;99194.50;10588225;28;20039;-72
2023/10/27 14:43:14;;;;;;;0.55;0.55;;;;;;;12.46;100.00;99195.00;10587620;28;20035;-71
2023/10/27 14:48:16;;;;;;;0.45;0.45;;;;;;;12.35;100.00;99215.75;10587503;28;20405;-71
2023/10/27 14:53:16;;;;;;;0.40;0.40;;;;;;;12.26;100.00;99217.25;10587157;28;20058;-70
2023/10/27 14:58:17;;;;;;;0.52;0.52;;;;;;;12.19;100.00;99219.31;10584339;28;20036;-69
2023/10/27 15:03:17;;;;;;;0.80;0.80;;;;;;;12.10;100.00;99213.50;10586242;28;20478;-69
2023/10/27 15:08:17;;;;;;;2.35;2.25;;;;;;;12.21;100.00;99222.59;10584386;28;20049;-70
2023/10/27 15:13:18;;;;;;;1.80;1.70;;;;;;;12.17;100.00;99227.72;10567663;28;20028;-69
2023/10/27 15:18:18;;;;;;;0.50;0.50;;;;;;;12.25;100.00;99221.03;10585305;28;20028;-70
2023/10/27 15:23:19;;;;;;;0.35;0.35;;;;;;;12.36;100.00;99216.56;10586645;28;20110;-71
2023/10/27 15:28:20;;;;;;;0.40;0.40;;;;;;;12.45;100.00;99220.50;10584811;28;20410;-70
2023/10/27 15:33:20;;;;;;;0.40;0.40;;;;;;;12.51;100.00;99222.22;10583721;28;20123;-72
2023/10/27 15:38:22;;;;;;;0.43;0.43;;;;;;;12.53;100.00;99209.19;10584577;28;20442;-71
2023/10/27 15:43:23;;;;;;;0.63;0.63;;;;;;;12.39;100.00;99229.66;10583166;28;20031;-71
2023/10/27 15:48:23;;;;;;;0.50;0.50;;;;;;;12.27;100.00;99225.13;10582902;28;20427;-72
2023/10/27 15:53:24;;;;;;;0.50;0.50;;;;;;;12.04;100.00;99223.44;10583734;28;20032;-72
2023/10/27 15:58:24;;;;;;;0.60;0.60;;;;;;;11.86;100.00;99219.09;10584077;28;20073;-73
2023/10/27 16:03:24;;;;;;;0.50;0.50;;;;;;;11.72;100.00;99215.03;10585477;28;20092;-72
2023/10/27 16:08:25;;;;;;;0.40;0.40;;;;;;;11.55;100.00;99208.78;10584195;28;20050;-74
2023/10/27 16:13:25;;;;;;;0.60;0.60;;;;;;;11.43;100.00;99221.59;10599267;27;20036;-72
2023/10/27 16:18:26;;;;;;;0.20;0.20;;;;;;;11.36;100.00;99228.00;10581316;28;20389;-73
2023/10/27 16:23:26;;;;;;;0.45;0.45;;;;;;;11.29;100.00;99230.00;10583735;28;20032;-72
2023/10/27 16:28:27;;;;;;;8.38;2.25;;;;;;;11.20;100.00;99239.63;10583099;28;20035;-72
2023/10/27 16:33:27;;;;;;;0.40;0.40;;;;;;;11.10;100.00;99244.81;10582840;28;20107;-72
2023/10/27 16:38:28;;;;;;;0.70;0.70;;;;;;;11.00;100.00;99240.03;10582700;28;20040;-73
2023/10/27 16:43:33;;;;;;;0.43;0.43;;;;;;;10.93;100.00;99242.88;10581957;28;20434;-72
2023/10/27 16:48:34;;;;;;;0.50;0.50;;;;;;;10.89;100.00;99238.19;10583262;28;20123;-72
2023/10/27 16:53:34;;;;;;;0.40;0.40;;;;;;;10.87;100.00;99256.56;10598561;27;20032;-72
2023/10/27 16:58:39;;;;;;;0.40;0.40;;;;;;;10.87;100.00;99253.84;10581802;28;20031;-72
2023/10/27 17:03:42;;;;;;;0.40;0.40;;;;;;;10.83;100.00;99258.94;10581407;28;20030;-71
2023/10/27 17:08:43;;;;;;;1.92;1.60;;;;;;;10.81;100.00;99252.91;10580944;28;20032;-72
2023/10/27 17:13:44;;;;;;;0.40;0.40;;;;;;;10.81;100.00;99252.91;10581522;28;20454;-71
2023/10/27 17:18:45;;;;;;;0.70;0.70;;;;;;;10.82;100.00;99248.34;10580390;28;20226;-71
2023/10/27 17:23:56;;;;;;;1.25;1.15;;;;;;;10.81;100.00;99252.91;10581144;28;20043;-72
2023/10/27 17:28:57;;;;;;;0.40;0.40;;;;;;;10.78;100.00;99260.69;10581876;28;20118;-71
2023/10/27 17:33:58;;;;;;;1.52;1.52;;;;;;;10.82;100.00;99249.16;10579311;28;20523;-71
2023/10/27 17:38:58;;;;;;;0.40;0.40;;;;;;;10.82;100.00;99246.47;10581092;28;20370;-72
2023/10/27 17:43:58;;;;;;;0.43;0.43;;;;;;;10.80;100.00;99255.88;10583078;28;20031;-72
2023/10/27 17:48:59;;;;;;;0.93;0.93;;;;;;;10.79;100.00;99262.38;10583923;28;20124;-72
2023/10/27 17:53:59;;;;;;;0.65;0.65;;;;;;;10.68;100.00;99264.84;10583282;28;20035;-71
2023/10/27 17:59:02;;;;;;;0.50;0.50;;;;;;;10.65;100.00;99278.03;10579447;28;20080;-71
2023/10/27 18:04:03;;;;;;;0.47;0.47;;;;;;;10.66;100.00;99285.09;10579024;28;20114;-73
2023/10/27 18:09:03;;;;;;;1.08;1.02;;;;;;;10.68;100.00;99286.50;10579951;28;20047;-71
2023/10/27 18:14:04;;;;;;;1.20;1.20;;;;;;;10.69;100.00;99273.81;10579138;28;20097;-71
2023/10/27 18:19:05;;;;;;;0.50;0.50;;;;;;;10.67;100.00;99292.16;10560707;28;20115;-71
2023/10/27 18:24:06;;;;;;;0.55;0.55;;;;;;;10.59;100.00;99281.69;10561944;28;20035;-69
2023/10/27 18:29:08;;;;;;;2.30;2.15;;;;;;;10.51;100.00;99282.06;10580932;28;20498;-71
2023/10/27 18:34:09;;;;;;;0.40;0.40;;;;;;;10.51;100.00;99292.88;10589061;28;20387;-71
2023/10/27 18:39:09;;;;;;;0.63;0.63;;;;;;;10.46;100.00;99286.31;10581982;28;20114;-71
2023/10/27 18:44:11;;;;;;;0.40;0.40;;;;;;;10.43;100.00;99285.94;10580769;28;20035;-72
2023/10/27 18:49:12;;;;;;;0.77;0.77;;;;;;;10.36;100.00;99282.53;10577515;28;20423;-71
2023/10/27 18:54:16;;;;;;;1.80;1.70;;;;;;;10.28;100.00;99272.91;10579035;28;20165;-72
2023/10/27 18:59:16;;;;;;;0.60;0.60;;;;;;;10.24;100.00;99272.50;10577959;28;20523;-71
2023/10/27 19:04:17;;;;;;;0.50;0.50;;;;;;;10.19;100.00;99274.28;10583325;28;20032;-71
2023/10/27 19:09:18;;;;;;;0.60;0.60;;;;;;;10.07;100.00;99274.25;10586570;28;20444;-71
2023/10/27 19:14:18;;;;;;;0.40;0.40;;;;;;;10.08;100.00;99267.78;10584742;28;20119;-72
2023/10/27 19:19:18;;;;;;;0.50;0.50;;;;;;;10.09;100.00;99274.84;10586840;28;20066;-71
2023/10/27 19:24:19;;;;;;;0.30;0.30;;;;;;;10.04;100.00;99276.59;10586492;28;20111;-72
2023/10/27 19:29:21;;;;;;;0.40;0.40;;;;;;;10.01;100.00;99284.13;10586179;27;20031;-70
2023/10/27 19:34:21;;;;;;;0.60;0.60;;;;;;;10.00;100.00;99284.38;10585524;28;20035;-71
2023/10/27 19:39:22;;;;;;;1.95;1.65;;;;;;;9.95;100.00;99293.16;10585595;28;20471;-71
2023/10/27 19:44:22;;;;;;;0.40;0.40;;;;;;;9.92;100.00;99299.06;10584393;28;20058;-71
2023/10/27 19:49:23;;;;;;;0.40;0.40;;;;;;;9.89;100.00;99313.03;10583580;28;20062;-72
2023/10/27 19:54:23;;;;;;;0.47;0.47;;;;;;;9.85;100.00;99311.03;10584628;28;20347;-72
2023/10/27 19:59:24;;;;;;;0.45;0.45;;;;;;;9.82;100.00;99319.59;10585686;28;20405;-72
2023/10/27 20:04:24;;;;;;;0.57;0.57;;;;;;;9.79;100.00;99312.75;10583874;28;20061;-72
2023/10/27 20:09:24;;;;;;;3.40;3.10;;;;;;;9.77;100.00;99321.13;10586425;28;20119;-73
2023/10/27 20:14:25;;;;;;;0.50;0.50;;;;;;;9.77;100.00;99321.13;10588275;28;20079;-73
2023/10/27 20:19:26;;;;;;;0.70;0.70;;;;;;;9.70;100.00;99312.28;10585595;28;20038;-71
2023/10/27 20:24:26;;;;;;;0.60;0.60;;;;;;;9.72;100.00;99312.03;10584303;28;20059;-71
2023/10/27 20:29:27;;;;;;;0.20;0.20;;;;;;;9.71;100.00;99330.16;10584079;28;20042;-71
2023/10/27 20:34:28;;;;;;;0.73;0.73;;;;;;;9.68;100.00;99330.59;10582198;28;20030;-71
2023/10/27 20:39:28;;;;;;;0.50;0.50;;;;;;;9.63;100.00;99335.88;10584238;28;20030;-71
2023/10/27 20:44:29;;;;;;;0.40;0.40;;;;;;;9.55;100.00;99345.13;10581503;28;20122;-72
2023/10/27 20:49:32;;;;;;;1.23;1.23;;;;;;;9.49;100.00;99348.75;10583032;28;20105;-72
2023/10/27 20:54:33;;;;;;;0.60;0.60;;;;;;;9.42;100.00;99347.19;10582437;28;20423;-70
2023/10/27 20:59:33;;;;;;;0.80;0.77;;;;;;;9.33;100.00;99346.69;10582145;28;20058;-71
2023/10/27 21:04:33;;;;;;;1.02;1.02;;;;;;;9.31;100.00;99349.59;10581961;28;20032;-79
2023/10/27 21:09:34;;;;;;;0.68;0.68;;;;;;;9.32;100.00;99351.25;10586562;28;20032;-74
2023/10/27 21:14:34;;;;;;;0.80;0.80;;;;;;;9.26;100.00;99362.16;10566328;28;20035;-71
2023/10/27 21:19:35;;;;;;;0.43;0.43;;;;;;;9.29;100.00;99359.00;10583576;28;20035;-71
2023/10/27 21:24:35;;;;;;;0.70;0.70;;;;;;;9.33;100.00;99360.19;10582270;28;20046;-70
2023/10/27 21:29:35;;;;;;;0.40;0.40;;;;;;;9.37;100.00;99363.25;10580315;28;20120;-71
2023/10/27 21:34:36;;;;;;;1.20;1.10;;;;;;;9.31;100.00;99364.97;10579860;28;20019;-70
2023/10/27 21:39:40;;;;;;;0.68;0.68;;;;;;;9.34;100.00;99353.72;10579376;28;20031;-71
2023/10/27 21:44:40;;;;;;;0.77;0.77;;;;;;;9.37;100.00;99360.56;10578624;28;20508;-69
2023/10/27 21:49:44;;;;;;;0.70;0.70;;;;;;;9.40;100.00;99357.41;10578279;28;20051;-71
2023/10/27 21:54:44;;;;;;;2.65;2.45;;;;;;;9.42;100.00;99369.63;10560675;28;20054;-71
2023/10/27 21:59:46;;;;;;;0.40;0.40;;;;;;;9.45;100.00;99376.47;10577853;28;20044;-70
2023/10/27 22:04:46;;;;;;;0.50;0.50;;;;;;;9.58;100.00;99379.00;10577723;28;20036;-71
2023/10/27 22:09:48;;;;;;;0.40;0.40;;;;;;;9.57;100.00;99377.31;10578902;28;20031;-70
2023/10/27 22:14:49;;;;;;;0.50;0.50;;;;;;;9.52;100.00;99371.78;10577903;28;20024;-70
2023/10/27 22:19:49;;;;;;;0.98;0.98;;;;;;;9.51;100.00;99368.28;10577372;28;20462;-70
2023/10/27 22:24:50;;;;;;;0.50;0.50;;;;;;;9.50;100.00;99365.78;10579328;28;20039;-70
2023/10/27 22:29:52;;;;;;;0.80;0.80;;;;;;;9.53;100.00;99366.16;10578831;28;20080;-70
2023/10/27 22:34:53;;;;;;;1.15;1.15;;;;;;;9.60;100.00;99376.03;10577168;28;20028;-71
2023/10/27 22:39:55;;;;;;;0.45;0.45;;;;;;;9.59;100.00;99369.00;10585408;28;20082;-71
2023/10/27 22:44:55;;;;;;;1.20;1.20;;;;;;;9.62;100.00;99376.66;10589124;28;20165;-70
2023/10/27 22:49:55;;;;;;;0.50;0.50;;;;;;;9.59;100.00;99374.41;10588225;28;20069;-71
2023/10/27 22:54:56;;;;;;;0.50;0.50;;;;;;;9.58;100.00;99364.66;10584375;28;20553;-71
2023/10/27 22:59:57;;;;;;;0.70;0.70;;;;;;;9.66;100.00;99367.03;10584871;28;20039;-70
2023/10/27 23:04:57;;;;;;;0.40;0.40;;;;;;;9.72;100.00;99371.50;10585544;28;20050;-71